• Join FlightAware (Why Join?)
  • Login
  • US Flag 
01:54PM EST


 

Airport Tracker/Info


-or-


 

Live Flight TrackerFlight Track Log ✈ RSP882 ✈ 24-Jun-2013 ✈ KMMU - KMVY

Flight Track Log - Related Links

Times and Time Zones

All times are in EDT time to prevent confusion due to time zone crossing. See the RSP882 flight status page for this flight to view local times or setup timezone preferences in your user account.

Time Position Orientation Groundspeed Altitude Reporting Facility
EDT Latitude Longitude Course Direction KTS MPH feet Rate Location/Type
10:27AM 40.7333 -74.4333 36° Northeast 217 250 2,000  Level New York TRACON
10:28AM 40.7167 -74.3500 105° East 210 242 4,700 1,980 Climbing New York TRACON
10:29AM 40.7667 -74.3000 37° Northeast 238 274 6,000 600 Climbing New York TRACON
10:30AM 40.8333 -74.2833 11° North 233 268 6,000  Level New York TRACON
10:31AM 40.9000 -74.2500 21° North 228 262 6,000  Level New York TRACON
10:32AM 40.8174 -74.3975 36° Northeast  Level FlightAware Approximate
10:32AM 40.9500 -74.2167 27° Northeast 228 262 6,000  Level New York TRACON
10:33AM 41.0167 -74.2000 11° North 231 266 6,000  Level New York TRACON
10:34AM 41.0833 -74.1667 21° North 227 261 6,000 600 Level New York TRACON
10:35AM 41.1167 -74.1167 48° Northeast 248 285 7,300 2,220 Climbing New York TRACON
10:36AM 41.1500 -74.0333 62° Northeast 266 306 10,500 1,980 Climbing New York TRACON
10:37AM 41.1950 -73.8800 69° East 311 358 12,400 1,920 Climbing Boston Center
10:38AM 41.2089 -73.7533 82° East 311 358 15,400 2,580 Climbing Boston Center
10:39AM 41.2186 -73.6514 83° East 311 358 17,600 1,800 Climbing Boston Center
10:40AM 41.2322 -73.5192 82° East 316 364 19,000 660 Climbing Boston Center
10:41AM 41.2417 -73.3953 84° East 355 409 19,000  Level Boston Center
10:42AM 41.2575 -73.2408 82° East 367 422 19,000  Level Boston Center
10:43AM 41.2647 -73.1028 86° East 367 422 19,000  Level Boston Center
10:45AM 41.2847 -72.8269 84° East 367 422 19,000  Level Boston Center
10:46AM 41.2956 -72.6833 84° East 367 422 19,000  Level Boston Center
10:47AM 41.3019 -72.5450 86° East 367 422 19,000  Level Boston Center
10:48AM 41.3083 -72.4069 86° East 367 422 19,000 -300 Level Boston Center
10:49AM 41.3167 -72.2689 85° East 367 422 18,400 -1,020 Descending Boston Center
10:50AM 41.3247 -72.1361 85° East 362 417 17,000 -1,800 Descending Boston Center
10:51AM 41.3325 -72.0061 85° East 362 417 14,900 -1,920 Descending Boston Center
10:52AM 41.3403 -71.8817 85° East 344 396 13,200 -1,800 Descending Boston Center
10:53AM 41.3458 -71.7628 86° East 331 381 11,300 -1,140 Descending Boston Center
10:54AM 41.3492 -71.6411 88° East 326 375 11,000 -180 Descending Boston Center
10:55AM 41.3567 -71.5247 85° East 326 375 11,000 -1,140 Level Boston Center
10:57AM 41.3636 -71.3669 87° East 310 357 8,300 -1,680 Descending Boston Center
10:58AM 41.3689 -71.2700 86° East 290 334 7,100 -660 Descending Boston Center
10:59AM 41.3739 -71.1567 87° East 285 328 7,000 -60 Descending Boston Center
11:00AM 41.3792 -71.0625 86° East 285 328 7,000  Level Boston Center
11:01AM 41.3817 -70.9461 88° East 285 328 7,000 -720 Level Boston Center
11:02AM 41.3867 -70.8519 86° East 285 328 5,600 -1,080 Descending Boston Center
11:03AM 41.3892 -70.7383 88° East 277 319 4,900 -1,260 Descending Boston Center
11:04AM 41.4089 -70.6631 71° East 244 281 3,100 -1,500 Descending Boston Center
11:05AM 41.4558 -70.5981 46° Northeast 223 257 2,000 -900 Descending Boston Center
11:06AM 41.4489 -70.5514 101° East 145 167 1,300 -600 Descending Boston Center
11:07AM 41.4222 -70.5797 219° Southwest 48 55 800 -540 Descending Boston Center